Redwood City, CA (94063)

12:42 PM PDT on August 24, 2016 (GMT -0700)
White Oaks | | Change Station

Elev 52 ft 37.49 °N, 122.26 °W | Updated 2 minutes ago

Partly Cloudy
Partly Cloudy
71.4 °F
Feels Like 75 °F
N
4.0
Wind Variable Wind from NNE
Gusts 9.0 mph

Today
High -- | Low -- °F
--% Chance of Precip.
Yesterday
High -- | Low -- °F
Precip. -- in
Pressure 30.11 in
Visibility 10.0 miles
Clouds Few 1700 ft
Heat Index 75 °F
Dew Point 59.0 °F
Humidity 64%
Rainfall 0.00 in
Snow Depth Not available.
6:32 AM 7:48 PM
Waning Gibbous, 54% visible
METAR KSQL 241858Z 02009KT 10SM FEW017 18/14 A3011
Pressure 30.11 in
Visibility 10.0 miles
Clouds Few 1700 ft
Heat Index 75 °F
Dew Point 59.0 °F
Humidity 64%
Rainfall 0.00 in
Snow Depth Not available.
6:32 AM 7:48 PM
Waning Gibbous, 54% visible
METAR KSQL 241858Z 02009KT 10SM FEW017 18/14 A3011

10-Day Weather Forecast

Almanac

Astronomy

Aug. 24, 2016 Rise Set
Actual Time
Civil Twilight
Nautical Twilight
Astronomical Twilight
Moon
Length of Visible Light
Length of Day
Tomorrow will be .
, % of the Moon is Illuminated

Today's Extremes

State Highs State Lows

Community

WunderPhotos

Upload Photos

1,934,690 photos uploaded!

WunderBlog® & News

Nearby

Air Quality

  Air Quality AQ Index Pollutant
Not available.

Snow Depth

Station Depth Elevation

Earthquake Activity

City Distance Mag. Time & Date
Minimum magnitude displayed is 2.5.

Coastal Water Temperatures

Place Temperature

Stations

Nearby Weather Stations

Station Location Temp. Windchill Dew Point Humidity Wind Precip. Elev Updated Type
                   

Watches & Warnings

There are currently no watches in effect.